Time;durP1;ratioP1;P1;durP2;ratioP2;P2;SDS_P1;SDS_P2;PMS_P1;PMS_P2;Temp;Humidity;BMP_temperature;BMP_pressure;BME280_temperature;BME280_humidity;BME280_pressure;Samples;Min_cycle;Max_cycle;Signal;HPM_P1;HPM_P2
2021/03/10 00:01:21;;;;;;;39.05;15.27;;;;;;;29.94;49.04;101246.41;5045459;28;70021;-37
2021/03/10 00:03:51;;;;;;;32.22;15.25;;;;;;;30.02;49.90;101254.31;5051685;28;65491;-32
2021/03/10 00:06:20;;;;;;;46.63;15.63;;;;;;;30.08;51.11;101256.19;5050063;28;70395;-31
2021/03/10 00:08:50;;;;;;;43.60;18.80;;;;;;;30.10;50.83;101270.38;5050532;28;66117;-32
2021/03/10 00:11:21;;;;;;;43.65;20.23;;;;;;;30.09;51.02;101275.97;5044856;28;69087;-33
2021/03/10 00:13:50;;;;;;;42.22;17.50;;;;;;;30.10;51.31;101272.25;5043903;28;66587;-32
2021/03/10 00:16:20;;;;;;;62.85;18.45;;;;;;;30.16;51.88;101280.34;5036884;28;70941;-33
2021/03/10 00:18:50;;;;;;;38.78;16.73;;;;;;;30.19;52.35;101290.75;5047472;28;65368;-32
2021/03/10 00:21:20;;;;;;;32.15;16.45;;;;;;;30.27;52.67;101293.31;5048137;28;70648;-32
2021/03/10 00:23:50;;;;;;;33.30;16.13;;;;;;;30.34;51.68;101293.34;5044361;28;66261;-32
2021/03/10 00:26:21;;;;;;;33.72;16.08;;;;;;;30.41;52.08;101304.16;5048444;28;69137;-32
2021/03/10 00:28:51;;;;;;;25.65;15.77;;;;;;;30.38;52.65;101304.56;5047763;28;65185;-32
2021/03/10 00:31:21;;;;;;;28.95;15.40;;;;;;;30.19;52.47;101307.00;5048259;28;69215;-33
2021/03/10 00:33:51;;;;;;;36.45;16.27;;;;;;;30.20;51.98;101316.81;5045917;28;66049;-33
2021/03/10 00:36:20;;;;;;;35.03;15.85;;;;;;;30.19;51.95;101317.81;5041958;28;69888;-33
2021/03/10 00:38:50;;;;;;;32.22;15.75;;;;;;;30.17;52.36;101325.34;5044135;28;65598;-36
2021/03/10 00:41:20;;;;;;;22.95;14.38;;;;;;;30.22;51.53;101317.44;5044315;28;69187;-35
2021/03/10 00:43:50;;;;;;;32.45;15.85;;;;;;;30.20;52.17;101324.91;5045113;28;66527;-34
2021/03/10 00:46:20;;;;;;;27.58;15.13;;;;;;;30.23;51.65;101324.53;5046296;28;69088;-34
2021/03/10 00:48:49;;;;;;;20.38;14.65;;;;;;;30.23;51.38;101324.53;5042772;28;65226;-32
2021/03/10 00:51:19;;;;;;;22.45;14.18;;;;;;;30.27;50.91;101331.19;5043187;28;70107;-34
2021/03/10 00:53:49;;;;;;;22.52;14.52;;;;;;;30.33;51.13;101334.13;5057282;27;65419;-33
2021/03/10 00:56:19;;;;;;;22.05;14.85;;;;;;;30.33;51.09;101334.13;5040107;28;69942;-34
2021/03/10 00:58:50;;;;;;;27.77;14.27;;;;;;;30.32;51.43;101338.72;5037542;28;66753;-33
2021/03/10 01:01:20;;;;;;;28.55;15.20;;;;;;;30.37;50.88;101336.22;5047502;28;69244;-33
2021/03/10 01:03:49;;;;;;;24.65;14.32;;;;;;;30.35;51.02;101341.00;5048802;28;65657;-33
2021/03/10 01:06:23;;;;;;;27.40;14.32;;;;;;;30.43;50.85;101351.63;5050219;28;70259;-36
2021/03/10 01:08:53;;;;;;;27.27;15.15;;;;;;;30.46;50.06;101356.63;5050842;28;65467;-33
2021/03/10 01:11:23;;;;;;;26.17;14.40;;;;;;;30.49;49.94;101349.97;5042675;28;70798;-34
2021/03/10 01:13:53;;;;;;;27.23;15.00;;;;;;;30.54;49.89;101354.78;5044873;28;66119;-34
2021/03/10 01:16:23;;;;;;;23.08;15.02;;;;;;;30.53;49.63;101348.50;5042890;28;69717;-34
2021/03/10 01:18:53;;;;;;;20.40;14.43;;;;;;;30.56;50.08;101349.97;5050139;28;65941;-33
2021/03/10 01:21:24;;;;;;;23.58;13.73;;;;;;;30.56;49.34;101360.78;5039443;28;69250;-34
2021/03/10 01:23:54;;;;;;;22.27;13.47;;;;;;;30.58;49.70;101354.13;5051566;28;66116;-34
2021/03/10 01:26:24;;;;;;;20.73;13.98;;;;;;;30.60;49.21;101356.66;5046297;28;70000;-34
2021/03/10 01:28:54;;;;;;;22.15;13.48;;;;;;;30.63;49.67;101357.06;5040109;28;66343;-35
2021/03/10 01:31:24;;;;;;;24.65;14.57;;;;;;;30.62;49.11;101352.69;5036388;28;69974;-34
2021/03/10 01:33:54;;;;;;;20.20;13.60;;;;;;;30.63;49.17;101362.47;5045487;28;66490;-34
2021/03/10 01:36:24;;;;;;;18.80;14.25;;;;;;;30.67;49.30;101363.75;5050871;28;70216;-33
2021/03/10 01:38:54;;;;;;;22.90;14.05;;;;;;;30.65;49.14;101370.41;5037945;28;66263;-33
2021/03/10 01:41:24;;;;;;;20.05;13.27;;;;;;;30.64;48.92;101364.13;5039918;28;69719;-34
2021/03/10 01:43:53;;;;;;;20.98;13.20;;;;;;;30.64;48.74;101369.53;5041289;27;66401;-33
2021/03/10 01:46:32;;;;;;;25.15;13.75;;;;;;;30.64;48.66;101353.31;5046995;28;69293;-33
2021/03/10 01:49:02;;;;;;;24.15;13.63;;;;;;;30.70;48.79;101366.03;5050231;28;65944;-34
2021/03/10 01:51:33;;;;;;;16.33;13.13;;;;;;;30.72;49.03;101360.41;5040659;28;70055;-34
2021/03/10 01:54:02;;;;;;;23.25;14.18;;;;;;;30.72;48.55;101361.22;5054155;28;65539;-33
2021/03/10 01:56:33;;;;;;;15.82;13.30;;;;;;;30.77;48.27;101344.34;5042985;28;70102;-33
2021/03/10 01:59:04;;;;;;;21.13;13.48;;;;;;;30.81;48.86;101351.03;5048406;28;66228;-33
2021/03/10 02:01:33;;;;;;;21.40;14.82;;;;;;;30.84;48.63;101353.34;5050491;28;69352;-33
2021/03/10 02:04:09;;;;;;;26.10;14.50;;;;;;;30.86;48.75;101350.44;5037515;28;65447;-33
2021/03/10 02:07:01;;;;;;;19.65;14.18;;;;;;;30.90;48.04;101352.53;5039211;28;69977;-33
2021/03/10 02:09:52;;;;;;;24.00;14.30;;;;;;;30.97;48.22;101359.81;5031900;28;66000;-33
2021/03/10 02:12:34;;;;;;;24.83;14.77;;;;;;;30.96;48.27;101361.69;5040288;28;70090;-34
2021/03/10 02:15:28;;;;;;;21.33;15.00;;;;;;;31.00;48.26;101356.66;5041017;28;66852;-35
2021/03/10 02:18:06;;;;;;;25.38;15.20;;;;;;;31.03;47.87;101362.50;5053648;27;70085;-34
2021/03/10 02:20:41;;;;;;;19.50;13.88;;;;;;;31.03;48.18;101365.19;5045936;28;63734;-34
2021/03/10 02:23:35;;;;;;;21.23;15.23;;;;;;;30.91;48.15;101347.94;5044701;28;70457;-34
2021/03/10 02:26:23;;;;;;;21.90;14.70;;;;;;;31.03;48.20;101362.50;5049930;28;65416;-36
2021/03/10 02:29:06;;;;;;;24.13;15.20;;;;;;;30.98;47.86;101345.19;5051936;28;69205;-34
2021/03/10 02:31:51;;;;;;;25.75;15.50;;;;;;;31.10;48.18;101357.09;5046406;28;66739;-33
2021/03/10 02:34:21;;;;;;;27.88;16.00;;;;;;;31.12;47.80;101354.97;5054431;28;69180;-34
2021/03/10 02:37:03;;;;;;;22.42;15.50;;;;;;;31.16;47.70;101367.91;5056244;28;66174;-34
2021/03/10 02:39:34;;;;;;;26.52;15.93;;;;;;;31.20;47.58;101370.19;5053835;28;69968;-33
2021/03/10 02:42:04;;;;;;;25.25;15.90;;;;;;;31.26;47.91;101367.50;5052359;28;65380;-35
2021/03/10 02:44:35;;;;;;;25.58;16.08;;;;;;;31.25;47.74;101360.38;5045332;28;70094;-33
2021/03/10 02:47:06;;;;;;;22.50;16.05;;;;;;;31.32;47.32;101365.81;5046915;28;66283;-33
2021/03/10 02:49:37;;;;;;;24.25;16.58;;;;;;;31.33;47.04;101362.03;5053658;28;69988;-33
2021/03/10 02:52:10;;;;;;;23.20;16.33;;;;;;;31.26;46.89;101339.53;5045522;28;65036;-34
2021/03/10 02:54:40;;;;;;;;;;;;;;;31.39;47.33;101355.78;5049478;28;70288;-34
2021/03/10 02:57:11;;;;;;;22.48;16.33;;;;;;;31.49;46.70;101353.47;5041382;28;65508;-32
2021/03/10 02:59:44;;;;;;;25.83;16.60;;;;;;;31.49;47.01;101345.34;5036710;28;69007;-34
2021/03/10 03:02:15;;;;;;;21.95;16.92;;;;;;;31.52;46.64;101350.34;5038761;28;65799;-34
2021/03/10 03:04:45;;;;;;;21.98;15.80;;;;;;;31.53;46.65;101335.72;5039083;28;69835;-34
2021/03/10 03:07:20;;;;;;;22.42;17.00;;;;;;;31.57;46.59;101336.97;5050149;28;65980;-34
2021/03/10 03:09:50;;;;;;;29.27;17.30;;;;;;;31.60;46.55;101339.25;5051233;28;69984;-34
2021/03/10 03:12:20;;;;;;;20.67;17.08;;;;;;;31.63;47.01;101329.03;5052718;28;66261;-33
2021/03/10 03:14:51;;;;;;;26.70;18.23;;;;;;;31.61;46.54;101330.06;5056885;28;68736;-35
2021/03/10 03:17:20;;;;;;;29.67;17.83;;;;;;;31.68;46.39;101327.34;5053351;28;66439;-32
2021/03/10 03:19:51;;;;;;;33.72;17.38;;;;;;;31.70;46.59;101324.41;5045241;28;70084;-33
2021/03/10 03:22:24;;;;;;;27.13;16.65;;;;;;;31.73;46.86;101318.53;5068022;28;66393;-33
2021/03/10 03:24:55;;;;;;;20.42;16.85;;;;;;;31.76;46.22;101323.53;5048042;28;69065;-33
2021/03/10 03:27:25;;;;;;;24.58;17.17;;;;;;;31.78;46.28;101311.41;5047960;28;66873;-41
2021/03/10 03:29:57;;;;;;;26.02;17.83;;;;;;;31.81;46.09;101318.28;5050608;28;69335;-33
2021/03/10 03:32:34;;;;;;;25.98;18.02;;;;;;;31.84;45.95;101301.59;5055720;28;65872;-34
2021/03/10 03:35:06;;;;;;;24.40;17.15;;;;;;;31.85;46.06;101292.41;5045773;28;69318;-35
2021/03/10 03:37:48;;;;;;;24.90;16.83;;;;;;;31.90;45.90;101298.03;5063237;27;65336;-36
2021/03/10 03:40:20;;;;;;;24.80;18.17;;;;;;;31.93;45.80;101297.63;5046081;28;70094;-36
2021/03/10 03:42:53;;;;;;;32.80;18.70;;;;;;;31.94;45.88;101283.00;5050703;28;66234;-35
2021/03/10 03:45:24;;;;;;;26.20;16.98;;;;;;;31.99;46.20;101279.63;5054356;28;70176;-35
2021/03/10 03:47:56;;;;;;;30.80;17.60;;;;;;;32.00;45.62;101276.69;5043181;28;65132;-35
2021/03/10 03:50:28;;;;;;;21.92;17.05;;;;;;;32.00;45.96;101270.44;5041659;28;69217;-35
2021/03/10 03:52:59;;;;;;;23.80;17.75;;;;;;;32.05;45.74;101267.91;5050158;28;66477;-36
2021/03/10 03:55:29;;;;;;;25.15;17.65;;;;;;;32.10;45.44;101259.94;5041515;28;70487;-36
2021/03/10 03:57:59;;;;;;;28.23;16.88;;;;;;;32.11;45.51;101249.91;5037960;28;65499;-36
2021/03/10 04:00:30;;;;;;;20.73;16.60;;;;;;;32.15;45.55;101253.84;5045247;28;71149;-36
2021/03/10 04:03:01;;;;;;;23.27;16.48;;;;;;;32.17;45.59;101243.59;5039366;28;65433;-34
2021/03/10 04:05:31;;;;;;;24.27;17.38;;;;;;;32.17;45.51;101249.03;5051192;28;69200;-33
2021/03/10 04:08:10;;;;;;;19.38;15.63;;;;;;;32.24;45.40;101233.53;5048828;28;64941;-34
2021/03/10 04:10:40;;;;;;;21.92;16.95;;;;;;;32.26;45.43;101225.97;5054551;28;70090;-33
2021/03/10 04:13:10;;;;;;;20.30;15.50;;;;;;;32.28;45.42;101216.56;5055721;28;65498;-34
2021/03/10 04:15:40;;;;;;;35.05;16.17;;;;;;;32.30;45.38;101216.34;5054716;28;69279;-33
2021/03/10 04:18:10;;;;;;;24.70;16.90;;;;;;;32.33;45.17;101210.47;5051308;28;65460;-34
2021/03/10 04:20:42;;;;;;;20.70;16.52;;;;;;;32.35;45.42;101211.09;5048771;28;70020;-33
2021/03/10 04:23:11;;;;;;;24.88;17.08;;;;;;;32.39;44.78;101208.75;5047126;28;65797;-34
2021/03/10 04:25:42;;;;;;;27.00;16.52;;;;;;;32.38;44.75;101197.06;5051241;28;69936;-33
2021/03/10 04:28:12;;;;;;;23.23;16.13;;;;;;;32.43;44.88;101189.09;5045164;28;65420;-34
2021/03/10 04:30:42;;;;;;;18.17;15.63;;;;;;;32.43;44.96;101172.78;5048972;28;70474;-35
2021/03/10 04:33:12;;;;;;;22.20;14.80;;;;;;;32.48;45.00;101175.69;5045513;28;65928;-33
2021/03/10 04:35:45;;;;;;;24.50;16.13;;;;;;;32.53;44.84;101172.28;5053678;28;69320;-36
2021/03/10 04:38:29;;;;;;;21.52;15.82;;;;;;;32.56;44.49;101152.81;5043718;28;65242;-33
2021/03/10 04:40:58;;;;;;;19.05;15.70;;;;;;;32.49;44.58;101133.91;5048368;28;69260;-34
2021/03/10 04:43:28;;;;;;;24.15;16.15;;;;;;;32.47;44.36;101136.00;5056039;28;66257;-34
2021/03/10 04:45:59;;;;;;;19.52;15.52;;;;;;;32.63;44.76;101150.06;5059230;27;70101;-34
2021/03/10 04:48:30;;;;;;;;;;;;;;;32.67;44.31;101140.38;5057079;28;66808;-33
2021/03/10 04:51:03;;;;;;;19.80;15.55;;;;;;;32.72;43.89;101141.38;5056508;28;70384;-34
2021/03/10 04:53:33;;;;;;;18.38;15.25;;;;;;;32.74;43.98;101129.47;5059741;28;66029;-34
2021/03/10 04:56:03;;;;;;;21.15;16.55;;;;;;;32.74;44.40;101127.56;5056639;28;69868;-35
2021/03/10 04:58:33;;;;;;;20.30;15.80;;;;;;;32.77;44.20;101123.56;5044753;28;65916;-34
2021/03/10 05:01:03;;;;;;;18.17;15.98;;;;;;;32.80;43.97;101118.50;5052960;28;71691;-33
2021/03/10 05:03:38;;;;;;;23.27;15.48;;;;;;;32.81;44.07;101112.00;5049277;28;65901;-33
2021/03/10 05:06:09;;;;;;;19.77;15.82;;;;;;;32.85;44.05;101105.06;5046582;28;70615;-33
2021/03/10 05:08:55;;;;;;;24.10;15.30;;;;;;;32.86;44.09;101106.72;5040951;28;65360;-34
2021/03/10 05:11:26;;;;;;;18.30;15.48;;;;;;;32.89;43.63;101089.13;5045529;28;69276;-40
2021/03/10 05:13:59;;;;;;;23.77;15.65;;;;;;;32.93;43.72;101091.19;5048412;28;66726;-33
2021/03/10 05:16:30;;;;;;;22.45;16.50;;;;;;;32.92;43.69;101078.63;5051424;28;70007;-35
2021/03/10 05:19:02;;;;;;;20.85;15.27;;;;;;;32.99;43.80;101077.69;5039932;28;66150;-37
2021/03/10 05:21:33;;;;;;;20.90;14.68;;;;;;;33.02;43.90;101077.31;5051177;28;69735;-33
2021/03/10 05:24:05;;;;;;;22.83;16.40;;;;;;;33.04;43.58;101064.28;5041201;27;66855;-33
2021/03/10 05:26:41;;;;;;;20.52;15.80;;;;;;;33.06;43.80;101062.19;5064788;27;69169;-34
2021/03/10 05:29:12;;;;;;;18.45;14.95;;;;;;;33.10;43.63;101064.22;5039663;28;63879;-35
2021/03/10 05:31:44;;;;;;;17.48;15.30;;;;;;;33.15;43.56;101050.75;5039371;28;69732;-33
2021/03/10 05:34:15;;;;;;;20.08;15.15;;;;;;;33.18;43.44;101043.19;5039230;28;65968;-34
2021/03/10 05:36:47;;;;;;;16.52;14.75;;;;;;;33.21;43.40;101043.56;5045397;28;69179;-34
2021/03/10 05:39:18;;;;;;;16.38;14.73;;;;;;;33.23;43.29;101044.13;5042665;28;65184;-33
2021/03/10 05:41:50;;;;;;;16.70;14.52;;;;;;;33.24;43.26;101037.66;5046219;28;70335;-35
2021/03/10 05:44:22;;;;;;;16.65;14.95;;;;;;;33.28;43.11;101038.84;5046661;28;66768;-34
2021/03/10 05:46:54;;;;;;;16.20;14.50;;;;;;;33.32;43.19;101028.31;5042264;28;69928;-35
2021/03/10 05:49:25;;;;;;;17.58;14.30;;;;;;;33.31;43.27;101015.78;5049552;28;66012;-34
2021/03/10 05:51:58;;;;;;;18.85;15.27;;;;;;;33.38;42.88;101011.91;5054755;28;70416;-34
2021/03/10 05:54:31;;;;;;;19.35;14.02;;;;;;;33.28;42.92;100984.47;5052741;28;66348;-35
2021/03/10 05:57:04;;;;;;;20.00;14.43;;;;;;;33.42;42.85;101004.09;5052969;28;69950;-34
2021/03/10 05:59:36;;;;;;;16.60;14.85;;;;;;;33.46;42.67;100999.00;5056337;28;65378;-35
2021/03/10 06:02:08;;;;;;;16.50;14.75;;;;;;;33.49;42.78;101006.69;5051908;28;69225;-37
2021/03/10 06:04:42;;;;;;;17.67;14.60;;;;;;;33.50;42.82;101002.94;5054373;28;66097;-34
2021/03/10 06:07:24;;;;;;;16.10;13.52;;;;;;;33.51;42.43;100993.69;5048854;28;69111;-34
2021/03/10 06:10:06;;;;;;;16.05;14.57;;;;;;;33.57;42.42;100987.34;5052191;28;65500;-34
2021/03/10 06:12:42;;;;;;;14.63;13.20;;;;;;;33.63;42.08;100991.88;5049084;28;69918;-35
2021/03/10 06:15:15;;;;;;;20.75;14.52;;;;;;;33.62;42.51;100978.50;5053217;28;66240;-34
2021/03/10 06:17:49;;;;;;;18.15;15.02;;;;;;;33.67;42.41;100981.34;5054441;28;70117;-35
2021/03/10 06:20:31;;;;;;;16.15;14.45;;;;;;;33.66;42.41;100975.06;5052755;28;65356;-34
2021/03/10 06:23:14;;;;;;;15.85;14.30;;;;;;;33.72;42.43;100974.13;5050107;28;69936;-34
2021/03/10 06:25:46;;;;;;;14.68;13.10;;;;;;;33.73;42.21;100964.88;5051019;28;65725;-34
2021/03/10 06:28:17;;;;;;;16.45;14.60;;;;;;;33.76;42.14;100969.00;5050715;28;69984;-34
2021/03/10 06:30:48;;;;;;;16.43;14.53;;;;;;;33.80;42.31;100960.16;5054781;28;66194;-33
2021/03/10 06:33:24;;;;;;;19.60;14.07;;;;;;;33.75;42.13;100946.44;5050621;28;68990;-33
2021/03/10 06:35:55;;;;;;;15.07;13.68;;;;;;;33.86;41.86;100944.75;5049067;28;66204;-34
2021/03/10 06:38:27;;;;;;;17.95;14.07;;;;;;;33.89;41.91;100947.00;5052841;28;69999;-35
2021/03/10 06:40:59;;;;;;;20.15;13.93;;;;;;;33.88;41.93;100937.19;5049813;28;66775;-35
2021/03/10 06:43:41;;;;;;;18.58;14.32;;;;;;;33.75;41.65;100924.66;5047519;28;69412;-34
2021/03/10 06:46:18;;;;;;;19.55;14.15;;;;;;;33.93;41.79;100936.44;5048858;28;66971;-35
2021/03/10 06:49:01;;;;;;;19.98;13.43;;;;;;;33.91;41.42;100936.72;5051782;28;70614;-33
2021/03/10 06:51:33;;;;;;;16.52;14.18;;;;;;;33.97;41.61;100921.31;5050919;28;66913;-33
2021/03/10 06:54:15;;;;;;;21.63;13.95;;;;;;;33.99;41.85;100919.16;5051365;28;70431;-34
2021/03/10 06:56:57;;;;;;;15.10;13.60;;;;;;;34.03;41.81;100914.91;5051632;28;65702;-33
2021/03/10 06:59:55;;;;;;;13.60;12.38;;;;;;;34.02;41.40;100910.53;5048254;28;69168;-34
2021/03/10 07:02:30;;;;;;;16.33;14.02;;;;;;;33.95;41.33;100897.06;5054114;28;66089;-34
2021/03/10 07:05:02;;;;;;;15.30;13.45;;;;;;;34.06;41.79;100909.00;5045386;28;69739;-33
2021/03/10 07:07:35;;;;;;;15.18;13.43;;;;;;;34.09;41.75;100897.63;5047579;28;65969;-34
2021/03/10 07:10:28;;;;;;;17.38;13.20;;;;;;;34.12;41.50;100897.13;5055230;28;68719;-34
2021/03/10 07:13:03;;;;;;;21.90;13.52;;;;;;;34.11;41.29;100887.34;5044773;28;66269;-34
2021/03/10 07:15:40;;;;;;;18.23;12.90;;;;;;;34.20;41.36;100890.50;5054170;28;69871;-35
2021/03/10 07:18:15;;;;;;;16.00;13.30;;;;;;;34.20;41.31;100891.31;5038715;28;67170;-33
2021/03/10 07:20:58;;;;;;;23.80;13.32;;;;;;;34.22;41.02;100891.91;5059747;27;70675;-33
2021/03/10 07:23:31;;;;;;;15.85;12.82;;;;;;;34.23;41.12;100882.66;5047284;28;66316;-33
2021/03/10 07:26:05;;;;;;;16.80;13.50;;;;;;;34.14;41.23;100848.72;5050099;28;69693;-33
2021/03/10 07:28:38;;;;;;;14.00;12.70;;;;;;;34.26;40.96;100870.44;5052653;28;65334;-34
2021/03/10 07:31:25;;;;;;;16.90;13.07;;;;;;;34.30;40.86;100870.78;5050102;28;69064;-34
2021/03/10 07:34:02;;;;;;;16.38;13.23;;;;;;;34.35;40.97;100863.56;5048776;28;65456;-35
2021/03/10 07:36:36;;;;;;;19.95;13.05;;;;;;;34.34;40.79;100853.72;5054503;28;69911;-34
2021/03/10 07:39:29;;;;;;;22.08;13.57;;;;;;;34.37;40.62;100860.56;5046928;28;65225;-34
2021/03/10 07:42:17;;;;;;;14.07;12.82;;;;;;;34.40;40.39;100854.63;5049637;28;69915;-33
2021/03/10 07:45:01;;;;;;;16.05;13.40;;;;;;;34.39;40.25;100853.00;5028684;28;65748;-34
2021/03/10 07:48:15;;;;;;;16.67;13.55;;;;;;;34.45;40.57;100852.00;5054120;28;69816;-35
2021/03/10 07:50:52;;;;;;;16.48;12.82;;;;;;;34.47;40.37;100847.16;5037204;28;66017;-34
2021/03/10 07:53:39;;;;;;;17.95;13.23;;;;;;;34.50;40.27;100838.50;5053634;28;70232;-33
2021/03/10 07:56:40;;;;;;;13.90;12.40;;;;;;;34.55;40.27;100830.41;5050261;28;66091;-33
2021/03/10 07:59:17;;;;;;;14.45;12.95;;;;;;;34.58;40.55;100829.94;5044496;28;70621;-34
2021/03/10 08:02:03;;;;;;;15.18;13.57;;;;;;;34.57;40.72;100831.00;5047099;28;66702;-34
2021/03/10 08:04:37;;;;;;;18.92;13.13;;;;;;;34.53;40.50;100794.41;5048424;28;70447;-35
2021/03/10 08:07:08;;;;;;;16.02;12.43;;;;;;;34.67;40.65;100823.00;5044558;28;64979;-33
2021/03/10 08:09:52;;;;;;;14.45;12.38;;;;;;;34.67;40.62;100817.56;5046719;28;69653;-35
2021/03/10 08:12:49;;;;;;;25.50;13.07;;;;;;;34.74;40.81;100811.09;5031001;28;66849;-35
2021/03/10 08:15:25;;;;;;;13.77;12.45;;;;;;;34.76;40.67;100792.63;5031728;28;69760;-34
2021/03/10 08:18:06;;;;;;;18.48;12.50;;;;;;;34.80;40.45;100805.50;5023530;28;65491;-34
2021/03/10 08:20:39;;;;;;;17.30;11.35;;;;;;;34.83;40.31;100793.28;5028637;28;69877;-36
2021/03/10 08:23:11;;;;;;;19.83;12.02;;;;;;;34.87;40.52;100794.41;5029580;28;66659;-36
2021/03/10 08:25:42;;;;;;;13.73;12.30;;;;;;;34.88;40.43;100796.06;5027820;28;70585;-34
2021/03/10 08:28:14;;;;;;;12.63;11.32;;;;;;;34.93;40.40;100793.41;5026548;28;66535;-34
2021/03/10 08:30:45;;;;;;;15.73;11.77;;;;;;;34.95;40.56;100796.72;5011594;28;70580;-35
2021/03/10 08:33:15;;;;;;;15.05;11.93;;;;;;;34.98;40.79;100795.41;5028332;28;65076;-35
2021/03/10 08:35:51;;;;;;;14.55;11.40;;;;;;;34.88;40.19;100771.53;5027897;28;70579;-33
2021/03/10 08:38:22;;;;;;;18.42;12.25;;;;;;;35.04;40.53;100789.75;5030678;28;65856;-34
2021/03/10 08:41:11;;;;;;;12.73;11.48;;;;;;;34.95;40.65;100764.00;5028429;28;69917;-34
2021/03/10 08:43:41;;;;;;;17.65;11.82;;;;;;;35.14;40.47;100779.03;5031472;28;65834;-34
2021/03/10 08:46:11;;;;;;;17.15;11.68;;;;;;;35.19;40.44;100788.34;5022465;28;69957;-35
2021/03/10 08:48:42;;;;;;;15.27;11.18;;;;;;;35.21;40.68;100791.66;5022257;28;65176;-33
2021/03/10 08:51:12;;;;;;;18.77;11.38;;;;;;;35.25;40.52;100785.44;5021443;28;70622;-33
2021/03/10 08:53:42;;;;;;;12.63;11.30;;;;;;;35.29;40.25;100791.22;5025595;28;65383;-34
2021/03/10 08:56:13;;;;;;;12.60;11.25;;;;;;;35.29;40.48;100802.94;5025813;28;68743;-35
2021/03/10 08:58:53;;;;;;;13.43;12.05;;;;;;;35.34;40.11;100804.94;5047255;28;65931;-35
2021/03/10 09:01:24;;;;;;;14.60;11.63;;;;;;;35.41;40.06;100800.13;5047827;28;71916;-35
2021/03/10 09:03:55;;;;;;;14.90;11.40;;;;;;;35.48;40.11;100806.19;5050678;28;65918;-35
2021/03/10 09:06:25;;;;;;;15.60;11.60;;;;;;;35.51;40.06;100805.69;5047789;28;70147;-34
2021/03/10 09:08:56;;;;;;;14.25;11.40;;;;;;;35.53;39.95;100809.00;5047235;28;65955;-34
2021/03/10 09:11:26;;;;;;;12.57;10.88;;;;;;;35.56;39.91;100803.06;5051429;28;69368;-35
2021/03/10 09:14:09;;;;;;;13.85;11.20;;;;;;;35.55;39.89;100801.38;5053322;28;66447;-33
2021/03/10 09:16:59;;;;;;;13.70;11.57;;;;;;;35.63;39.75;100802.84;5052804;28;69199;-34
2021/03/10 09:19:44;;;;;;;13.70;11.55;;;;;;;35.67;39.64;100797.72;5053310;28;66517;-33
2021/03/10 09:22:23;;;;;;;17.40;10.98;;;;;;;35.68;39.48;100807.56;5070719;28;70433;-34
2021/03/10 09:25:25;;;;;;;14.75;11.13;;;;;;;35.73;39.74;100808.44;5068855;28;65906;-34
2021/03/10 09:28:09;;;;;;;12.40;10.80;;;;;;;35.74;39.80;100806.53;5051590;28;69214;-34
2021/03/10 09:30:51;;;;;;;14.25;11.45;;;;;;;35.78;39.31;100805.78;5068659;28;65436;-33
2021/03/10 09:33:27;;;;;;;16.67;10.68;;;;;;;35.83;39.78;100815.94;5054334;28;70584;-34
2021/03/10 09:36:03;;;;;;;15.38;10.80;;;;;;;35.81;39.43;100815.34;5052824;28;65473;-34
2021/03/10 09:38:42;;;;;;;13.30;10.68;;;;;;;35.90;39.29;100824.72;5051424;28;69873;-34
2021/03/10 09:41:24;;;;;;;12.98;11.02;;;;;;;35.80;39.15;100816.41;5053239;28;65304;-34
2021/03/10 09:44:08;;;;;;;12.43;10.15;;;;;;;35.94;39.45;100847.72;5054184;28;69139;-34
2021/03/10 09:46:44;;;;;;;14.32;10.35;;;;;;;35.94;39.68;100846.88;5042408;28;65921;-35
2021/03/10 09:49:18;;;;;;;12.40;10.57;;;;;;;35.99;39.34;100847.75;5042857;28;70823;-33
2021/03/10 09:51:51;;;;;;;15.15;11.57;;;;;;;36.01;39.42;100848.31;5055715;28;65631;-34
2021/03/10 09:54:27;;;;;;;19.52;10.43;;;;;;;36.02;39.43;100850.00;5070767;28;70015;-34
2021/03/10 09:57:04;;;;;;;12.80;10.43;;;;;;;36.01;39.22;100840.13;5052253;28;66201;-35
2021/03/10 09:59:45;;;;;;;13.70;10.13;;;;;;;36.00;39.41;100852.16;5048369;28;69029;-34
2021/03/10 10:02:24;;;;;;;11.82;10.13;;;;;;;36.04;39.19;100841.53;5045156;28;66636;-34
2021/03/10 10:05:00;;;;;;;10.60;9.50;;;;;;;36.01;39.69;100842.88;5056103;28;70626;-34
2021/03/10 10:07:31;;;;;;;13.98;10.43;;;;;;;35.99;39.44;100845.00;5059629;28;66395;-38
2021/03/10 10:10:09;;;;;;;13.40;9.68;;;;;;;36.02;39.34;100850.00;5064443;28;70328;-35
2021/03/10 10:12:52;;;;;;;15.98;10.25;;;;;;;35.98;39.74;100856.22;5053950;28;65829;-35
2021/03/10 10:15:32;;;;;;;26.85;10.05;;;;;;;35.84;40.39;100836.66;5058624;28;70032;-34
2021/03/10 10:18:06;;;;;;;19.70;9.38;;;;;;;35.67;41.80;100849.56;5056737;28;65448;-34
2021/03/10 10:20:44;;;;;;;38.35;10.00;;;;;;;35.48;42.49;100849.84;5068452;28;70580;-35
2021/03/10 10:23:19;;;;;;;31.25;9.50;;;;;;;35.39;42.88;100867.72;5054976;28;66058;-34
2021/03/10 10:26:02;;;;;;;34.80;9.63;;;;;;;35.28;43.45;100853.13;5054853;28;70543;-34
2021/03/10 10:28:36;;;;;;;26.52;9.10;;;;;;;35.22;44.01;100845.94;5064649;28;66032;-34
2021/03/10 10:31:25;;;;;;;23.50;9.65;;;;;;;35.14;43.78;100854.56;5071342;28;70139;-34
2021/03/10 10:33:56;;;;;;;28.73;8.75;;;;;;;35.05;43.95;100845.94;5055710;28;65519;-34
2021/03/10 10:36:27;;;;;;;21.80;9.07;;;;;;;34.97;43.77;100838.19;5055141;28;69673;-33
2021/03/10 10:39:17;;;;;;;27.77;9.05;;;;;;;34.97;44.40;100849.09;5076754;27;65280;-34
2021/03/10 10:41:48;;;;;;;33.50;9.40;;;;;;;34.96;44.59;100852.88;5058316;28;70388;-34
2021/03/10 10:44:20;;;;;;;31.23;10.50;;;;;;;34.93;44.32;100858.81;5056907;28;65321;-34
2021/03/10 10:46:54;;;;;;;21.67;9.35;;;;;;;34.89;44.48;100863.13;5075637;28;69920;-36
2021/03/10 10:49:24;;;;;;;21.50;9.52;;;;;;;34.89;43.83;100874.03;5039675;28;66444;-34
2021/03/10 10:51:54;;;;;;;32.97;9.57;;;;;;;34.85;44.10;100875.59;5057153;28;69813;-35
2021/03/10 10:54:31;;;;;;;20.20;9.18;;;;;;;34.85;44.35;100881.03;5057180;28;66191;-34
2021/03/10 10:57:02;;;;;;;31.75;11.15;;;;;;;34.80;44.53;100876.34;5056222;28;69666;-36
2021/03/10 10:59:36;;;;;;;22.05;10.48;;;;;;;34.78;45.31;100883.13;5058024;28;65359;-34
2021/03/10 11:02:13;;;;;;;16.23;8.82;;;;;;;34.74;44.91;100887.41;5062575;28;69123;-34
2021/03/10 11:04:49;;;;;;;28.38;9.60;;;;;;;34.63;44.16;100887.25;5038184;28;66534;-34
2021/03/10 11:07:23;;;;;;;16.75;8.93;;;;;;;34.42;43.04;100896.09;5037540;28;70262;-35
2021/03/10 11:09:57;;;;;;;30.83;9.18;;;;;;;34.36;43.01;100902.50;5042741;28;65434;-34
2021/03/10 11:12:27;;;;;;;33.15;8.85;;;;;;;34.24;42.75;100910.69;5040470;28;69198;-36
2021/03/10 11:15:04;;;;;;;31.55;8.70;;;;;;;33.98;42.90;100895.75;5040444;28;65630;-40
2021/03/10 11:17:51;;;;;;;26.88;7.60;;;;;;;34.01;42.37;100911.59;5053850;28;69802;-33
2021/03/10 11:20:21;;;;;;;35.03;9.10;;;;;;;33.94;41.79;100916.34;5052921;28;66625;-34
2021/03/10 11:22:52;;;;;;;26.50;8.27;;;;;;;33.96;40.92;100908.75;5068446;28;69064;-34
2021/03/10 11:25:22;;;;;;;17.88;7.68;;;;;;;33.95;40.00;100918.81;5050029;28;66378;-34
2021/03/10 11:27:53;;;;;;;19.20;7.82;;;;;;;33.90;39.34;100917.88;5041699;28;70527;-34
2021/03/10 11:30:24;;;;;;;13.00;7.32;;;;;;;33.89;38.89;100930.66;5042382;28;67371;-34
2021/03/10 11:32:54;;;;;;;21.25;6.97;;;;;;;33.81;38.04;100926.41;5071816;28;69298;-34
2021/03/10 11:35:31;;;;;;;21.73;6.95;;;;;;;33.76;37.74;100936.38;5076280;27;66111;-34
2021/03/10 11:38:03;;;;;;;7.93;5.63;;;;;;;33.70;37.13;100940.88;5054907;28;70160;-35
2021/03/10 11:40:45;;;;;;;6.32;5.03;;;;;;;33.67;36.78;100951.41;5057599;28;65628;-34
2021/03/10 11:43:17;;;;;;;8.50;5.32;;;;;;;33.56;36.47;100947.63;5057494;28;69161;-35
2021/03/10 11:45:53;;;;;;;6.82;4.93;;;;;;;33.54;36.13;100957.91;5054978;28;66052;-34